Terminal Aerodrome Forecast
Issued by NWS Wilmington, OH

Current Version | Previous Version | Graphics & Text | Print | Product List | Glossary On
Versions: 1 2 3 4 5 6 7 8 9 10 11 12 13 14 15 16 17 18 19 20 21 22 23
662
FTUS41 KILN 210539
TAFCMH
TAF
KCMH 210539Z 2106/2206 19010KT P6SM SCT080
     FM211100 20011KT P6SM VCSH BKN025 OVC080
     FM211300 33011KT 5SM -SHRA BR BKN006 OVC012
     FM211700 35011KT P6SM VCSH OVC008
     FM212300 02011KT P6SM OVC010
     FM220400 03012KT 3SM -RA BR OVC010=

USA.gov is the U.S. government's official web portal to all federal, state and local government web resources and services.